Du har inga inställningar för hoppväder.nu

Hoppväder.nu

Senast uppdaterat 14:18

UTC-tid

2021-09-21 kl. 12:18


Sol och måne

Solen går upp 6:51 och går ner 19:53 (beräknade cirkatider)
Nästa fullmåne blir om 29 dagar (2021-10-20)

METAR

ESOE (Örebro)
(28 minuter sedan)
ESOE 211150Z AUTO 18010KT 9999 -RA FEW064/// 10/07 Q1021=



ESOK (Karlstad)
(28 minuter sedan)
ESOK 211150Z 21008KT 5000 RA FEW005 BKN008 10/10 Q1019=



ESGR (Skövde)
(28 minuter sedan)
ESGR 211150Z 19009KT 9999 -RA FEW037 SCT059 OVC068 10/08 Q1021 RERA=



ESSD (Borlänge)
(28 minuter sedan)
ESSD 211150Z 17006KT 9000 -RA SCT007 OVC046 08/07 Q1019=



ESOW (Västerås)
(28 minuter sedan)
ESOW 211150Z 21008KT 9999 -RA FEW021 BKN031 BKN049 10/06 Q1022=



TAF

ESOE (Örebro)
ESOE



ESOK (Karlstad)
(48 minuter sedan)
ESOK 211130Z 2112/2115 19008KT 9999 -RA SCT007 BKN015 PROB40 2112/2115 2500 RADZ BR BKN005=



ESGR (Skövde)
ESGR



ESSD (Borlänge)
(48 minuter sedan)
ESSD 211130Z 2112/2116 19009KT 9999 -RA BKN040 TEMPO 2112/2113 RA BKN014 BECMG 2113/2115 4000 BR BKN008=



ESOW (Västerås)
(48 minuter sedan)
ESOW 211130Z 2112/2115 19007KT 9999 -RA BKN035 PROB40 2112/2115 RA=





Kodnycklar till TAF och METAR






LHP

(Örebro är område se32g i Delområde 4)

Översikt

ÖVERSIKT FÖR OMRÅDE se3 UTFÄRDAD 211149

GÄLLANDE DEN 21 SEPTEMBER 2021 MELLAN 12 OCH 20 UTC


Väderöversikt

Ett frontsystem rör sig österut.

Sikt under 5 kilometer eller molnbas under 1000 fot
12-20UTC: Hela området utom se33


Måttlig eller svår isbildning
12-18UTC: I hela området
18-20UTC: Hela området utom se31


Måttlig eller svår turbulens
Väntas inte förekomma under perioden

Delområde 4

PROGNOS FÖR OMRÅDE se32 UTFÄRDAD 211149
GÄLLANDE DEN 21 SEPTEMBER 2021 MELLAN 12 OCH 20 UTC

Måttlig eller svår turbulens
12-20UTC: I hela området: Väntas inte förekomma under perioden

Måttlig eller svår isbildning
12-14UTC: Område se32c,se32a: måttlig isbildning 4000ft - FL060

12-20UTC: Område se32d,se32h,se32g,se32f,se32e,se32j,se32i: måttlig isbildning FL050 - > FL125
Område se32b: måttlig isbildning 4000ft - FL060, måttlig isbildning FL050 - > FL125

14-20UTC: Område se32c,se32a: måttlig isbildning 4000ft - FL060, måttlig isbildning FL050 - > FL125


Sikt/Väder/Moln
12-14UTC: Område se32d: Sikt 1.5km - >8km i dis, regn. Molnbas 500ft - >2000ft.
Område se32e: Sikt >8km i regn, lokalt 3km - 5km. Molnbas >2000ft, lokalt 1000ft - 1500ft.
Område se32c: Sikt >8km, lokalt >8km i regnskurar. Molnbas >2000ft, lokalt 1500ft - 2000ft.
Område se32h,se32g,se32f,se32i: Sikt 3km - >8km i regn. Molnbas 1000ft - >2000ft.

12-16UTC: Område se32j: Sikt 1.5km - >8km i dis, regnskurar, regn. Molnbas 500ft - >2000ft.
Område se32b,se32a: Sikt >8km i regnskurar. Molnbas 1500ft - >2000ft.

14-16UTC: Område se32h,se32g,se32f,se32e,se32i: Sikt 1.5km - >8km i dis, regn. Molnbas 500ft - >2000ft.
Område se32d: Sikt >8km i regn, lokalt 1.5km - 3km i dis. Molnbas >2000ft, lokalt 500ft - 1000ft.
Område se32c: Sikt 1.5km - >8km i dis, regnskurar, regn. Molnbas 500ft - >2000ft.

16-18UTC: Område se32g,se32f: Sikt 5km - >8km i dis. Molnbas <500ft - >2000ft.
Område se32b,se32a: Sikt >8km. Molnbas >2000ft.
Område se32h,se32e,se32j,se32i: Sikt 1.5km - >8km i dis, regn. Molnbas <500ft - >2000ft.

16-20UTC: Område se32d: Sikt 1.5km - >8km i dis, regn. Molnbas <500ft - >2000ft.
Område se32c: Sikt >8km. Molnbas >2000ft.

18-20UTC: Område se32b,se32a,se32g,se32f,se32j: Sikt 3km - >8km i dis, regn. Molnbas 1000ft - >2000ft.
Område se32h,se32e,se32i: Sikt 3km - 5km i regn, lokalt >8km i dis. Molnbas 1000ft - 1500ft, lokalt >2000ft.


Molnöversida
12-20UTC: I hela området: Molnöversida > FL125.

CB/TCU Moln
12-20UTC: I hela området: ISOL EMBD CB

Nollgradersisoterm
12-20UTC: Noll grader 4000ft - FL070.

Vind vid marken
12-14UTC: Område se32f: SV/3-6 knop, byar upp till 14 knop.
Område se32i: SV/3-13 knop, byar upp till 17 knop.
Område se32b: S-SV/3-13 knop, byar upp till 20 knop.
Område se32e: SV/2-7 knop, byar upp till 14 knop.
Område se32g: SV/2-6 knop, byar upp till 13 knop.
Område se32a: S-SV/0-9 knop, byar upp till 15 knop.
Område se32h: SV/3-15 knop, byar upp till 19 knop.
Område se32c: S/3-14 knop, byar upp till 21 knop.
Område se32j: SV/2-15 knop, byar upp till 19 knop.
Område se32d: S/1-8 knop, byar upp till 12 knop.

14-16UTC: Område se32d: S/1-8 knop.
Område se32c: S-SV/2-14 knop, byar upp till 19 knop.
Område se32i: S-SV/0-8 knop, byar upp till 15 knop.
Område se32b: S-SV/0-14 knop, byar upp till 19 knop.
Område se32g: SV/0-5 knop.
Område se32h: S-SV/0-12 knop, byar upp till 18 knop.
Område se32e: S-SV/0-7 knop.
Område se32f: V/1-6 knop.
Område se32a: S-SV/0-11 knop, byar upp till 14 knop.
Område se32j: S-SV/1-13 knop, byar upp till 16 knop.

16-18UTC: Område se32a: SV/0-9 knop, byar upp till 13 knop.
Område se32d: S/0-10 knop, byar upp till 14 knop.
Område se32g: SO/0-5 knop.
Område se32f: NV-N/0-4 knop, byar upp till 12 knop.
Område se32c: S-SV/0-12 knop, byar upp till 17 knop.
Område se32j: S/0-12 knop, byar upp till 19 knop.
Område se32h: SO-S/0-8 knop, byar upp till 12 knop.
Område se32e: SO-S/0-6 knop.
Område se32b: S-SV/0-10 knop, byar upp till 17 knop.
Område se32i: SO-S/0-10 knop, byar upp till 13 knop.

18-20UTC: Område se32b: S-SV/0-8 knop.
Område se32i: SO-S/0-9 knop, byar upp till 13 knop.
Område se32j: S/0-8 knop, byar upp till 17 knop.
Område se32d: SO-S/0-6 knop, byar upp till 11 knop.
Område se32c: SV/0-11 knop, byar upp till 15 knop.
Område se32g,se32f: Lugnt.
Område se32e: SO-S/0-5 knop.
Område se32a: SV/0-9 knop, byar upp till 14 knop.
Område se32h: SO-S/0-8 knop, byar upp till 11 knop.


Genomsnittlig vind och temperatur för området
2000ft:
12-14UTC: 220/9kt +5.
14-20UTC: 220/10kt +5.

FL50:
12-14UTC: 260/9kt +0.
14-16UTC: 270/9kt +0.
16-18UTC: 290/7kt +0.
18-20UTC: 300/5kt +1.

FL100:
12-14UTC: 320/16kt -6.
14-16UTC: 320/15kt -6.
16-18UTC: 320/13kt -6.
18-20UTC: 330/11kt -6.

Lägsta QNH
1019 hPa.

OBS! endast utbredd måttlig eller svår isbildning och turbulens prognostiseras i LLF.
Avsaknad av isbildning och turbulens i prognosen utesluter inte förekomst av lätt isbildning och turbulens.
För indikation på lätt isbildning, var vänlig kontrollera om prognosen för molntopp ligger högre än nollgradersisotermen.
Förekomst av TCU eller CB medför alltid en risk för måttlig eller svår isbildning och turbulens även om det inte framgår explicit av prognosen.







Spotting

Hur fungerar spotthjälpen och Vindkartan?

Markvind är ca 1-3 m/s med byar på 7 m/s.
Vind på 600 m ca 5 m/s.
Vind på 1500 m ca 5 m/s.
Vind på 3000 m ca 8 m/s.
FXB flyger ca 28 m/s över marken på finalen.
Du driver ca 370 m bakåt i frifall. (494 m)
Lämplig spot är 3 sekunder eller 83 m efter gropen.
(7 s eller 194 m)
För små grupper eller ensamhoppare bör man vänta 5-8 sekunder mellan grupperna.
För större grupper bör man vänta 11-13 sekunder mellan grupperna.


Vindkartan

Senast uppdaterad 14:18




All data kommer från LFV.se